sensor_id;sensor_type;location;lat;lon;timestamp;pressure;altitude;pressure_sealevel;temperature;humidity
25855;BME280;13680;49.936;11.344;2023-05-23T00:01:34;96338.28;;;17.15;66.70
25855;BME280;13680;49.936;11.344;2023-05-23T00:04:03;96337.41;;;17.11;66.54
25855;BME280;13680;49.936;11.344;2023-05-23T00:06:28;96343.13;;;17.06;66.73
25855;BME280;13680;49.936;11.344;2023-05-23T00:08:55;96343.56;;;17.08;66.95
25855;BME280;13680;49.936;11.344;2023-05-23T00:11:20;96349.44;;;16.94;67.52
25855;BME280;13680;49.936;11.344;2023-05-23T00:13:51;96348.81;;;17.01;67.34
25855;BME280;13680;49.936;11.344;2023-05-23T00:16:16;96347.69;;;17.02;67.65
25855;BME280;13680;49.936;11.344;2023-05-23T00:18:41;96351.78;;;16.96;67.99
25855;BME280;13680;49.936;11.344;2023-05-23T00:21:07;96349.09;;;16.96;68.06
25855;BME280;13680;49.936;11.344;2023-05-23T00:23:33;96356.09;;;16.97;68.34
25855;BME280;13680;49.936;11.344;2023-05-23T00:25:59;96358.00;;;16.96;68.33
25855;BME280;13680;49.936;11.344;2023-05-23T00:28:24;96366.25;;;17.00;68.60
25855;BME280;13680;49.936;11.344;2023-05-23T00:30:50;96371.16;;;16.94;69.09
25855;BME280;13680;49.936;11.344;2023-05-23T00:33:16;96373.31;;;16.89;69.18
25855;BME280;13680;49.936;11.344;2023-05-23T00:35:41;96357.22;;;16.96;68.65
25855;BME280;13680;49.936;11.344;2023-05-23T00:38:07;96362.81;;;17.03;68.38
25855;BME280;13680;49.936;11.344;2023-05-23T00:40:33;96367.13;;;17.04;68.33
25855;BME280;13680;49.936;11.344;2023-05-23T00:42:59;96363.97;;;17.02;68.51
25855;BME280;13680;49.936;11.344;2023-05-23T00:45:25;96358.88;;;17.00;68.65
25855;BME280;13680;49.936;11.344;2023-05-23T00:47:50;96363.97;;;17.02;68.92
25855;BME280;13680;49.936;11.344;2023-05-23T00:50:16;96369.84;;;17.04;68.26
25855;BME280;13680;49.936;11.344;2023-05-23T00:52:44;96369.56;;;17.09;68.26
25855;BME280;13680;49.936;11.344;2023-05-23T00:55:10;96380.44;;;17.09;68.47
25855;BME280;13680;49.936;11.344;2023-05-23T00:57:36;96375.25;;;17.04;69.19
25855;BME280;13680;49.936;11.344;2023-05-23T01:00:08;96382.19;;;17.01;69.19
25855;BME280;13680;49.936;11.344;2023-05-23T01:02:43;96387.59;;;16.85;70.27
25855;BME280;13680;49.936;11.344;2023-05-23T01:05:14;96382.44;;;16.96;69.65
25855;BME280;13680;49.936;11.344;2023-05-23T01:07:51;96393.41;;;17.00;69.54
25855;BME280;13680;49.936;11.344;2023-05-23T01:10:19;96390.69;;;17.00;69.55
25855;BME280;13680;49.936;11.344;2023-05-23T01:15:32;96388.94;;;16.92;69.85
25855;BME280;13680;49.936;11.344;2023-05-23T01:18:12;96385.97;;;16.97;70.11
25855;BME280;13680;49.936;11.344;2023-05-23T01:20:40;96379.53;;;16.89;69.99
25855;BME280;13680;49.936;11.344;2023-05-23T01:23:26;96362.66;;;16.96;69.69
25855;BME280;13680;49.936;11.344;2023-05-23T01:28:40;96356.09;;;16.97;70.75
25855;BME280;13680;49.936;11.344;2023-05-23T01:31:09;96354.88;;;16.94;69.77
25855;BME280;13680;49.936;11.344;2023-05-23T01:33:37;96365.03;;;16.97;70.05
25855;BME280;13680;49.936;11.344;2023-05-23T01:36:04;96358.59;;;16.90;70.63
25855;BME280;13680;49.936;11.344;2023-05-23T01:38:29;96362.94;;;16.91;70.63
25855;BME280;13680;49.936;11.344;2023-05-23T01:40:55;96363.88;;;16.98;70.55
25855;BME280;13680;49.936;11.344;2023-05-23T01:43:21;96368.44;;;16.94;70.53
25855;BME280;13680;49.936;11.344;2023-05-23T01:45:48;96375.25;;;17.04;70.30
25855;BME280;13680;49.936;11.344;2023-05-23T01:48:14;96380.44;;;16.93;70.78
25855;BME280;13680;49.936;11.344;2023-05-23T01:50:41;96366.50;;;16.95;71.02
25855;BME280;13680;49.936;11.344;2023-05-23T01:53:11;96365.72;;;16.94;71.30
25855;BME280;13680;49.936;11.344;2023-05-23T01:55:38;96372.66;;;16.92;71.45
25855;BME280;13680;49.936;11.344;2023-05-23T01:58:05;96366.50;;;16.95;71.04
25855;BME280;13680;49.936;11.344;2023-05-23T02:00:30;96360.91;;;17.04;70.56
25855;BME280;13680;49.936;11.344;2023-05-23T02:02:56;96365.53;;;17.03;70.75
25855;BME280;13680;49.936;11.344;2023-05-23T02:05:21;96353.97;;;17.06;70.51
25855;BME280;13680;49.936;11.344;2023-05-23T02:07:47;96366.06;;;17.09;70.75
25855;BME280;13680;49.936;11.344;2023-05-23T02:10:12;96356.88;;;17.13;70.22
25855;BME280;13680;49.936;11.344;2023-05-23T02:12:38;96364.59;;;17.11;70.53
25855;BME280;13680;49.936;11.344;2023-05-23T02:15:03;96366.06;;;17.09;70.52
25855;BME280;13680;49.936;11.344;2023-05-23T02:17:29;96364.31;;;17.00;71.57
25855;BME280;13680;49.936;11.344;2023-05-23T02:19:54;96368.34;;;17.07;70.97
25855;BME280;13680;49.936;11.344;2023-05-23T02:22:24;96368.25;;;17.03;71.27
25855;BME280;13680;49.936;11.344;2023-05-23T02:24:50;96369.50;;;17.06;71.32
25855;BME280;13680;49.936;11.344;2023-05-23T02:27:16;96370.00;;;17.11;71.11
25855;BME280;13680;49.936;11.344;2023-05-23T02:29:41;96372.72;;;17.11;70.60
25855;BME280;13680;49.936;11.344;2023-05-23T02:32:06;96366.84;;;17.09;70.36
25855;BME280;13680;49.936;11.344;2023-05-23T02:34:32;96368.97;;;17.00;70.75
25855;BME280;13680;49.936;11.344;2023-05-23T02:36:57;96373.31;;;16.89;71.28
25855;BME280;13680;49.936;11.344;2023-05-23T02:39:22;96370.19;;;16.87;71.46
25855;BME280;13680;49.936;11.344;2023-05-23T02:41:47;96369.09;;;16.75;71.61
25855;BME280;13680;49.936;11.344;2023-05-23T02:44:13;96371.19;;;16.66;72.32
25855;BME280;13680;49.936;11.344;2023-05-23T02:46:38;96368.91;;;16.68;72.08
25855;BME280;13680;49.936;11.344;2023-05-23T02:49:03;96384.44;;;16.67;72.07
25855;BME280;13680;49.936;11.344;2023-05-23T02:51:29;96383.81;;;16.74;71.61
25855;BME280;13680;49.936;11.344;2023-05-23T02:53:56;96383.38;;;16.72;71.93
25855;BME280;13680;49.936;11.344;2023-05-23T02:56:21;96385.31;;;16.72;71.58
25855;BME280;13680;49.936;11.344;2023-05-23T02:58:46;96390.19;;;16.66;72.09
25855;BME280;13680;49.936;11.344;2023-05-23T03:01:12;96385.72;;;16.58;72.26
25855;BME280;13680;49.936;11.344;2023-05-23T03:03:37;96394.22;;;16.56;72.21
25855;BME280;13680;49.936;11.344;2023-05-23T03:06:04;96391.41;;;16.52;72.56
25855;BME280;13680;49.936;11.344;2023-05-23T03:08:30;96406.88;;;16.52;72.37
25855;BME280;13680;49.936;11.344;2023-05-23T03:10:55;96409.94;;;16.50;72.54
25855;BME280;13680;49.936;11.344;2023-05-23T03:13:21;96414.94;;;16.48;72.00
25855;BME280;13680;49.936;11.344;2023-05-23T03:15:46;96412.63;;;16.34;72.70
25855;BME280;13680;49.936;11.344;2023-05-23T03:18:12;96413.97;;;16.41;72.55
25855;BME280;13680;49.936;11.344;2023-05-23T03:20:37;96410.81;;;16.39;72.62
25855;BME280;13680;49.936;11.344;2023-05-23T03:23:02;96416.13;;;16.35;72.99
25855;BME280;13680;49.936;11.344;2023-05-23T03:25:28;96418.97;;;16.26;73.36
25855;BME280;13680;49.936;11.344;2023-05-23T03:27:53;96424.50;;;16.30;73.16
25855;BME280;13680;49.936;11.344;2023-05-23T03:30:19;96428.47;;;16.32;72.85
25855;BME280;13680;49.936;11.344;2023-05-23T03:32:44;96422.91;;;16.29;73.12
25855;BME280;13680;49.936;11.344;2023-05-23T03:35:10;96427.47;;;16.25;73.57
25855;BME280;13680;49.936;11.344;2023-05-23T03:37:36;96423.63;;;16.26;73.71
25855;BME280;13680;49.936;11.344;2023-05-23T03:40:02;96427.22;;;16.30;73.36
25855;BME280;13680;49.936;11.344;2023-05-23T03:42:28;96421.56;;;16.35;73.65
25855;BME280;13680;49.936;11.344;2023-05-23T03:44:54;96425.28;;;16.30;74.16
25855;BME280;13680;49.936;11.344;2023-05-23T03:47:20;96428.34;;;16.29;74.72
25855;BME280;13680;49.936;11.344;2023-05-23T03:49:45;96428.66;;;16.40;74.36
25855;BME280;13680;49.936;11.344;2023-05-23T03:52:10;96426.47;;;16.45;74.04
25855;BME280;13680;49.936;11.344;2023-05-23T03:54:36;96429.03;;;16.54;73.93
25855;BME280;13680;49.936;11.344;2023-05-23T03:57:02;96423.88;;;16.49;74.71
25855;BME280;13680;49.936;11.344;2023-05-23T03:59:27;96425.97;;;16.56;74.44
25855;BME280;13680;49.936;11.344;2023-05-23T04:01:53;96431.25;;;16.64;74.52
25855;BME280;13680;49.936;11.344;2023-05-23T04:04:19;96433.09;;;16.60;74.78
25855;BME280;13680;49.936;11.344;2023-05-23T04:06:45;96427.88;;;16.67;74.73
25855;BME280;13680;49.936;11.344;2023-05-23T04:09:11;96426.53;;;16.61;75.85
25855;BME280;13680;49.936;11.344;2023-05-23T04:11:38;96437.59;;;16.84;75.16
25855;BME280;13680;49.936;11.344;2023-05-23T04:14:03;96430.66;;;16.99;74.43
25855;BME280;13680;49.936;11.344;2023-05-23T04:16:28;96436.69;;;17.09;74.45
25855;BME280;13680;49.936;11.344;2023-05-23T04:18:58;96441.53;;;17.15;75.26
25855;BME280;13680;49.936;11.344;2023-05-23T04:21:23;96441.63;;;17.19;75.68
25855;BME280;13680;49.936;11.344;2023-05-23T04:23:49;96450.56;;;17.36;75.36
25855;BME280;13680;49.936;11.344;2023-05-23T04:26:14;96449.50;;;17.40;75.75
25855;BME280;13680;49.936;11.344;2023-05-23T04:28:40;96448.00;;;17.27;77.46
25855;BME280;13680;49.936;11.344;2023-05-23T04:31:07;96443.88;;;17.49;76.24
25855;BME280;13680;49.936;11.344;2023-05-23T04:33:33;96443.41;;;17.63;75.90
25855;BME280;13680;49.936;11.344;2023-05-23T04:35:58;96443.69;;;17.58;76.72
25855;BME280;13680;49.936;11.344;2023-05-23T04:38:23;96447.44;;;17.69;75.57
25855;BME280;13680;49.936;11.344;2023-05-23T04:40:52;96445.38;;;17.62;76.56
25855;BME280;13680;49.936;11.344;2023-05-23T04:43:18;96450.44;;;17.80;75.61
25855;BME280;13680;49.936;11.344;2023-05-23T04:45:44;96450.94;;;17.86;75.72
25855;BME280;13680;49.936;11.344;2023-05-23T04:48:10;96448.06;;;17.78;76.04
25855;BME280;13680;49.936;11.344;2023-05-23T04:50:37;96450.84;;;17.82;76.68
25855;BME280;13680;49.936;11.344;2023-05-23T04:53:04;96445.66;;;17.93;75.76
25855;BME280;13680;49.936;11.344;2023-05-23T04:55:30;96460.06;;;17.93;76.21
25855;BME280;13680;49.936;11.344;2023-05-23T04:57:56;96455.81;;;18.12;75.26
25855;BME280;13680;49.936;11.344;2023-05-23T05:00:21;96464.63;;;18.25;74.75
25855;BME280;13680;49.936;11.344;2023-05-23T05:02:46;96463.50;;;18.26;75.25
25855;BME280;13680;49.936;11.344;2023-05-23T05:05:12;96460.06;;;18.29;74.67
25855;BME280;13680;49.936;11.344;2023-05-23T05:07:37;96456.47;;;18.44;74.20
25855;BME280;13680;49.936;11.344;2023-05-23T05:10:03;96461.69;;;18.53;73.98
25855;BME280;13680;49.936;11.344;2023-05-23T05:12:29;96466.22;;;18.65;72.99
25855;BME280;13680;49.936;11.344;2023-05-23T05:14:54;96465.50;;;18.68;73.65
25855;BME280;13680;49.936;11.344;2023-05-23T05:17:19;96469.00;;;18.69;73.45
25855;BME280;13680;49.936;11.344;2023-05-23T05:19:45;96477.38;;;18.60;73.99
25855;BME280;13680;49.936;11.344;2023-05-23T05:22:10;96478.13;;;18.57;73.37
25855;BME280;13680;49.936;11.344;2023-05-23T05:24:36;96472.66;;;18.57;73.84
25855;BME280;13680;49.936;11.344;2023-05-23T05:27:02;96476.09;;;18.73;73.67
25855;BME280;13680;49.936;11.344;2023-05-23T05:29:27;96481.16;;;18.91;73.33
25855;BME280;13680;49.936;11.344;2023-05-23T05:31:52;96472.38;;;19.01;72.44
25855;BME280;13680;49.936;11.344;2023-05-23T05:34:18;96474.44;;;18.88;72.06
25855;BME280;13680;49.936;11.344;2023-05-23T05:36:43;96480.97;;;18.84;72.80
25855;BME280;13680;49.936;11.344;2023-05-23T05:39:13;96481.28;;;18.59;73.94
25855;BME280;13680;49.936;11.344;2023-05-23T05:41:38;96482.41;;;18.77;73.12
25855;BME280;13680;49.936;11.344;2023-05-23T05:44:05;96471.31;;;18.67;73.92
25855;BME280;13680;49.936;11.344;2023-05-23T05:46:30;96469.38;;;18.67;73.26
25855;BME280;13680;49.936;11.344;2023-05-23T05:48:55;96470.94;;;18.68;73.95
25855;BME280;13680;49.936;11.344;2023-05-23T05:51:21;96478.13;;;18.96;72.68
25855;BME280;13680;49.936;11.344;2023-05-23T05:53:46;96481.53;;;19.12;72.67
25855;BME280;13680;49.936;11.344;2023-05-23T05:56:13;96481.66;;;19.20;72.04
25855;BME280;13680;49.936;11.344;2023-05-23T05:58:39;96483.28;;;19.24;71.20
25855;BME280;13680;49.936;11.344;2023-05-23T06:01:04;96498.88;;;19.24;70.92
25855;BME280;13680;49.936;11.344;2023-05-23T06:03:30;96491.41;;;19.21;71.75
25855;BME280;13680;49.936;11.344;2023-05-23T06:05:56;96489.41;;;19.18;71.59
25855;BME280;13680;49.936;11.344;2023-05-23T06:08:21;96492.81;;;19.34;71.32
25855;BME280;13680;49.936;11.344;2023-05-23T06:10:47;96483.94;;;19.64;70.07
25855;BME280;13680;49.936;11.344;2023-05-23T06:13:12;96495.97;;;19.83;69.51
25855;BME280;13680;49.936;11.344;2023-05-23T06:15:37;96496.66;;;19.79;68.92
25855;BME280;13680;49.936;11.344;2023-05-23T06:18:03;96498.31;;;19.84;69.15
25855;BME280;13680;49.936;11.344;2023-05-23T06:20:28;96514.75;;;19.88;69.16
25855;BME280;13680;49.936;11.344;2023-05-23T06:22:54;96509.50;;;19.79;68.84
25855;BME280;13680;49.936;11.344;2023-05-23T06:25:19;96509.94;;;19.58;69.11
25855;BME280;13680;49.936;11.344;2023-05-23T06:27:44;96512.00;;;19.65;69.77
25855;BME280;13680;49.936;11.344;2023-05-23T06:30:10;96508.13;;;19.66;68.71
25855;BME280;13680;49.936;11.344;2023-05-23T06:32:36;96503.47;;;19.66;69.21
25855;BME280;13680;49.936;11.344;2023-05-23T06:35:02;96510.28;;;19.79;68.66
25855;BME280;13680;49.936;11.344;2023-05-23T06:37:28;96511.66;;;19.89;68.46
25855;BME280;13680;49.936;11.344;2023-05-23T06:39:53;96522.63;;;19.93;67.46
25855;BME280;13680;49.936;11.344;2023-05-23T06:42:18;96514.50;;;20.27;66.79
25855;BME280;13680;49.936;11.344;2023-05-23T06:44:44;96515.53;;;20.15;66.53
25855;BME280;13680;49.936;11.344;2023-05-23T06:47:09;96522.72;;;20.00;65.87
25855;BME280;13680;49.936;11.344;2023-05-23T06:49:34;96517.69;;;20.29;65.38
25855;BME280;13680;49.936;11.344;2023-05-23T06:52:00;96522.91;;;20.41;64.81
25855;BME280;13680;49.936;11.344;2023-05-23T06:54:25;96525.09;;;20.28;64.86
25855;BME280;13680;49.936;11.344;2023-05-23T06:56:50;96526.75;;;20.37;64.99
25855;BME280;13680;49.936;11.344;2023-05-23T06:59:16;96531.31;;;20.29;65.36
25855;BME280;13680;49.936;11.344;2023-05-23T07:01:41;96532.03;;;19.95;65.44
25855;BME280;13680;49.936;11.344;2023-05-23T07:04:06;96519.78;;;20.13;65.24
25855;BME280;13680;49.936;11.344;2023-05-23T07:06:32;96527.78;;;19.98;64.81
25855;BME280;13680;49.936;11.344;2023-05-23T07:08:57;96530.75;;;20.16;64.46
25855;BME280;13680;49.936;11.344;2023-05-23T07:11:22;96527.34;;;19.73;65.12
25855;BME280;13680;49.936;11.344;2023-05-23T07:13:48;96536.19;;;19.43;65.40
25855;BME280;13680;49.936;11.344;2023-05-23T07:16:13;96539.84;;;19.74;63.62
25855;BME280;13680;49.936;11.344;2023-05-23T07:18:39;96542.38;;;19.63;63.03
25855;BME280;13680;49.936;11.344;2023-05-23T07:21:04;96540.28;;;20.26;62.06
25855;BME280;13680;49.936;11.344;2023-05-23T07:23:33;96533.13;;;20.18;60.92
25855;BME280;13680;49.936;11.344;2023-05-23T07:25:59;96534.06;;;20.29;60.71
25855;BME280;13680;49.936;11.344;2023-05-23T07:28:24;96542.88;;;20.46;59.34
25855;BME280;13680;49.936;11.344;2023-05-23T07:30:50;96535.56;;;20.53;58.93
25855;BME280;13680;49.936;11.344;2023-05-23T07:33:15;96530.56;;;20.32;59.44
25855;BME280;13680;49.936;11.344;2023-05-23T07:35:41;96535.28;;;20.62;59.34
25855;BME280;13680;49.936;11.344;2023-05-23T07:38:06;96538.69;;;20.82;59.03
25855;BME280;13680;49.936;11.344;2023-05-23T07:40:31;96548.88;;;20.28;59.49
25855;BME280;13680;49.936;11.344;2023-05-23T07:42:57;96544.22;;;20.05;59.00
25855;BME280;13680;49.936;11.344;2023-05-23T07:45:24;96536.69;;;20.22;58.05
25855;BME280;13680;49.936;11.344;2023-05-23T07:47:49;96530.63;;;20.36;58.06
25855;BME280;13680;49.936;11.344;2023-05-23T07:50:15;96527.00;;;20.28;57.18
25855;BME280;13680;49.936;11.344;2023-05-23T07:52:40;96533.16;;;20.21;58.77
25855;BME280;13680;49.936;11.344;2023-05-23T07:55:06;96530.03;;;20.50;58.37
25855;BME280;13680;49.936;11.344;2023-05-23T07:57:31;96540.97;;;20.50;57.47
25855;BME280;13680;49.936;11.344;2023-05-23T07:59:56;96533.75;;;20.95;55.66
25855;BME280;13680;49.936;11.344;2023-05-23T08:02:22;96544.50;;;21.52;55.07
25855;BME280;13680;49.936;11.344;2023-05-23T08:04:47;96542.75;;;21.33;55.29
25855;BME280;13680;49.936;11.344;2023-05-23T08:07:12;96545.66;;;21.14;56.48
25855;BME280;13680;49.936;11.344;2023-05-23T08:09:39;96543.56;;;21.37;55.90
25855;BME280;13680;49.936;11.344;2023-05-23T08:12:05;96548.72;;;21.08;56.85
25855;BME280;13680;49.936;11.344;2023-05-23T08:14:31;96543.66;;;21.45;56.84
25855;BME280;13680;49.936;11.344;2023-05-23T08:16:56;96548.56;;;21.28;56.89
25855;BME280;13680;49.936;11.344;2023-05-23T08:19:22;96565.75;;;21.29;56.22
25855;BME280;13680;49.936;11.344;2023-05-23T08:21:47;96560.75;;;21.00;58.06
25855;BME280;13680;49.936;11.344;2023-05-23T08:24:12;96569.41;;;20.75;58.75
25855;BME280;13680;49.936;11.344;2023-05-23T08:26:38;96571.66;;;20.39;60.57
25855;BME280;13680;49.936;11.344;2023-05-23T08:29:04;96574.25;;;20.59;60.99
25855;BME280;13680;49.936;11.344;2023-05-23T08:31:30;96584.13;;;20.94;59.72
25855;BME280;13680;49.936;11.344;2023-05-23T08:33:56;96587.72;;;20.44;59.32
25855;BME280;13680;49.936;11.344;2023-05-23T08:36:22;96588.59;;;20.79;57.78
25855;BME280;13680;49.936;11.344;2023-05-23T08:38:48;96586.06;;;21.28;56.54
25855;BME280;13680;49.936;11.344;2023-05-23T08:41:23;96592.03;;;21.03;55.81
25855;BME280;13680;49.936;11.344;2023-05-23T08:43:49;96587.28;;;21.00;56.31
25855;BME280;13680;49.936;11.344;2023-05-23T08:46:15;96594.44;;;21.46;55.33
25855;BME280;13680;49.936;11.344;2023-05-23T08:48:41;96588.31;;;21.18;54.98
25855;BME280;13680;49.936;11.344;2023-05-23T08:51:12;96579.09;;;21.71;53.75
25855;BME280;13680;49.936;11.344;2023-05-23T08:53:40;96586.25;;;22.35;52.90
25855;BME280;13680;49.936;11.344;2023-05-23T08:56:08;96572.47;;;22.87;52.20
25855;BME280;13680;49.936;11.344;2023-05-23T08:58:34;96584.31;;;23.13;49.66
25855;BME280;13680;49.936;11.344;2023-05-23T09:01:00;96596.91;;;23.18;49.39
25855;BME280;13680;49.936;11.344;2023-05-23T09:03:26;96605.66;;;22.68;49.19
25855;BME280;13680;49.936;11.344;2023-05-23T09:05:55;96602.97;;;22.79;49.15
25855;BME280;13680;49.936;11.344;2023-05-23T09:08:22;96613.91;;;22.71;49.20
25855;BME280;13680;49.936;11.344;2023-05-23T09:10:50;96608.75;;;23.44;47.62
25855;BME280;13680;49.936;11.344;2023-05-23T09:13:16;96604.41;;;23.35;47.61
25855;BME280;13680;49.936;11.344;2023-05-23T09:16:02;96617.84;;;22.22;48.48
25855;BME280;13680;49.936;11.344;2023-05-23T09:18:38;96616.63;;;22.71;47.98
25855;BME280;13680;49.936;11.344;2023-05-23T09:21:04;96618.84;;;21.58;50.09
25855;BME280;13680;49.936;11.344;2023-05-23T09:23:33;96624.16;;;21.81;49.35
25855;BME280;13680;49.936;11.344;2023-05-23T09:26:06;96624.66;;;21.94;48.54
25855;BME280;13680;49.936;11.344;2023-05-23T09:28:33;96617.66;;;22.49;49.23
25855;BME280;13680;49.936;11.344;2023-05-23T09:31:06;96620.88;;;22.58;47.66
25855;BME280;13680;49.936;11.344;2023-05-23T09:33:42;96620.53;;;22.70;47.72
25855;BME280;13680;49.936;11.344;2023-05-23T09:36:07;96622.66;;;22.95;47.18
25855;BME280;13680;49.936;11.344;2023-05-23T09:38:40;96629.69;;;22.96;46.09
25855;BME280;13680;49.936;11.344;2023-05-23T09:41:06;96629.31;;;23.01;46.61
25855;BME280;13680;49.936;11.344;2023-05-23T09:43:32;96628.41;;;22.76;46.22
25855;BME280;13680;49.936;11.344;2023-05-23T09:46:06;96631.50;;;22.18;46.78
25855;BME280;13680;49.936;11.344;2023-05-23T09:48:33;96634.63;;;21.72;48.16
25855;BME280;13680;49.936;11.344;2023-05-23T09:51:06;96632.91;;;21.98;47.83
25855;BME280;13680;49.936;11.344;2023-05-23T09:53:31;96622.94;;;21.41;48.99
25855;BME280;13680;49.936;11.344;2023-05-23T09:56:02;96630.91;;;21.19;48.96
25855;BME280;13680;49.936;11.344;2023-05-23T09:58:28;96630.53;;;20.64;50.45
25855;BME280;13680;49.936;11.344;2023-05-23T10:00:55;96635.00;;;20.75;50.38
25855;BME280;13680;49.936;11.344;2023-05-23T10:03:34;96632.06;;;21.18;49.34
25855;BME280;13680;49.936;11.344;2023-05-23T10:06:07;96640.59;;;20.83;51.03
25855;BME280;13680;49.936;11.344;2023-05-23T10:08:48;96635.88;;;20.83;50.19
25855;BME280;13680;49.936;11.344;2023-05-23T10:13:44;96626.06;;;21.39;48.88
25855;BME280;13680;49.936;11.344;2023-05-23T10:16:22;96624.59;;;21.87;47.92
25855;BME280;13680;49.936;11.344;2023-05-23T10:18:56;96630.69;;;21.69;47.94
25855;BME280;13680;49.936;11.344;2023-05-23T10:21:48;96626.63;;;21.22;49.10
25855;BME280;13680;49.936;11.344;2023-05-23T10:24:14;96625.69;;;21.79;48.75
25855;BME280;13680;49.936;11.344;2023-05-23T10:26:39;96637.47;;;20.84;49.95
25855;BME280;13680;49.936;11.344;2023-05-23T10:29:05;96635.28;;;20.67;50.27
25855;BME280;13680;49.936;11.344;2023-05-23T10:31:31;96648.50;;;20.65;50.60
25855;BME280;13680;49.936;11.344;2023-05-23T10:34:20;96639.03;;;20.32;51.46
25855;BME280;13680;49.936;11.344;2023-05-23T10:37:02;96639.72;;;20.52;51.61
25855;BME280;13680;49.936;11.344;2023-05-23T10:42:48;96640.59;;;21.13;50.99
25855;BME280;13680;49.936;11.344;2023-05-23T10:45:20;96644.69;;;20.96;51.79
25855;BME280;13680;49.936;11.344;2023-05-23T10:47:47;96646.75;;;21.06;51.61
25855;BME280;13680;49.936;11.344;2023-05-23T10:50:30;96646.31;;;21.35;50.46
25855;BME280;13680;49.936;11.344;2023-05-23T10:52:58;96646.50;;;21.53;50.69
25855;BME280;13680;49.936;11.344;2023-05-23T10:55:24;96646.34;;;21.69;50.04
25855;BME280;13680;49.936;11.344;2023-05-23T10:58:17;96648.81;;;21.51;50.30
25855;BME280;13680;49.936;11.344;2023-05-23T11:00:55;96645.69;;;21.49;47.87
25855;BME280;13680;49.936;11.344;2023-05-23T11:03:34;96644.94;;;21.52;48.53
25855;BME280;13680;49.936;11.344;2023-05-23T11:06:02;96647.50;;;22.13;47.69
25855;BME280;13680;49.936;11.344;2023-05-23T11:08:35;96651.53;;;22.26;46.87
25855;BME280;13680;49.936;11.344;2023-05-23T11:11:03;96647.50;;;21.68;48.22
25855;BME280;13680;49.936;11.344;2023-05-23T11:13:55;96639.88;;;21.88;47.92
25855;BME280;13680;49.936;11.344;2023-05-23T11:16:29;96644.75;;;21.68;48.03
25855;BME280;13680;49.936;11.344;2023-05-23T11:19:20;96649.56;;;22.23;46.80
25855;BME280;13680;49.936;11.344;2023-05-23T11:21:56;96639.72;;;22.70;45.30
25855;BME280;13680;49.936;11.344;2023-05-23T11:24:22;96637.19;;;22.36;45.81
25855;BME280;13680;49.936;11.344;2023-05-23T11:26:56;96637.50;;;22.35;46.23
25855;BME280;13680;49.936;11.344;2023-05-23T11:29:25;96638.19;;;22.73;45.66
25855;BME280;13680;49.936;11.344;2023-05-23T11:31:51;96641.22;;;22.57;45.60
25855;BME280;13680;49.936;11.344;2023-05-23T11:34:17;96645.66;;;22.80;45.00
25855;BME280;13680;49.936;11.344;2023-05-23T11:36:42;96643.47;;;22.41;46.08
25855;BME280;13680;49.936;11.344;2023-05-23T11:39:08;96648.13;;;22.36;45.21
25855;BME280;13680;49.936;11.344;2023-05-23T11:41:34;96650.19;;;22.05;45.16
25855;BME280;13680;49.936;11.344;2023-05-23T11:44:00;96645.88;;;22.53;44.93
25855;BME280;13680;49.936;11.344;2023-05-23T11:46:26;96643.59;;;22.59;45.92
25855;BME280;13680;49.936;11.344;2023-05-23T11:48:51;96648.34;;;22.20;45.64
25855;BME280;13680;49.936;11.344;2023-05-23T11:51:17;96646.75;;;22.16;46.44
25855;BME280;13680;49.936;11.344;2023-05-23T11:53:44;96645.56;;;22.65;45.61
25855;BME280;13680;49.936;11.344;2023-05-23T11:56:09;96650.09;;;22.39;46.44
25855;BME280;13680;49.936;11.344;2023-05-23T11:58:37;96650.47;;;22.97;45.74
25855;BME280;13680;49.936;11.344;2023-05-23T12:01:04;96648.00;;;23.62;44.19
25855;BME280;13680;49.936;11.344;2023-05-23T12:03:31;96648.03;;;23.80;43.30
25855;BME280;13680;49.936;11.344;2023-05-23T12:05:57;96650.78;;;23.84;43.00
25855;BME280;13680;49.936;11.344;2023-05-23T12:08:23;96653.53;;;23.80;43.27
25855;BME280;13680;49.936;11.344;2023-05-23T12:10:55;96652.34;;;23.67;43.49
25855;BME280;13680;49.936;11.344;2023-05-23T12:13:25;96657.75;;;22.71;45.38
25855;BME280;13680;49.936;11.344;2023-05-23T12:15:55;96650.03;;;22.88;44.89
25855;BME280;13680;49.936;11.344;2023-05-23T12:18:21;96653.94;;;22.87;45.56
25855;BME280;13680;49.936;11.344;2023-05-23T12:20:50;96657.03;;;22.82;45.72
25855;BME280;13680;49.936;11.344;2023-05-23T12:23:24;96655.41;;;22.70;46.05
25855;BME280;13680;49.936;11.344;2023-05-23T12:25:55;96649.59;;;22.79;45.76
25855;BME280;13680;49.936;11.344;2023-05-23T12:28:32;96656.53;;;22.65;45.70
25855;BME280;13680;49.936;11.344;2023-05-23T12:30:58;96648.09;;;22.92;45.96
25855;BME280;13680;49.936;11.344;2023-05-23T12:33:24;96657.69;;;22.61;46.29
25855;BME280;13680;49.936;11.344;2023-05-23T12:35:49;96659.75;;;22.26;46.52
25855;BME280;13680;49.936;11.344;2023-05-23T12:38:15;96660.94;;;22.81;45.97
25855;BME280;13680;49.936;11.344;2023-05-23T12:40:41;96658.66;;;22.94;45.69
25855;BME280;13680;49.936;11.344;2023-05-23T12:43:08;96665.16;;;22.19;47.25
25855;BME280;13680;49.936;11.344;2023-05-23T12:45:35;96660.00;;;22.10;47.14
25855;BME280;13680;49.936;11.344;2023-05-23T12:48:07;96657.94;;;21.96;47.15
25855;BME280;13680;49.936;11.344;2023-05-23T12:50:33;96666.59;;;22.05;47.25
25855;BME280;13680;49.936;11.344;2023-05-23T12:52:58;96663.59;;;22.18;46.70
25855;BME280;13680;49.936;11.344;2023-05-23T12:55:23;96660.66;;;21.96;47.73
25855;BME280;13680;49.936;11.344;2023-05-23T12:57:49;96673.81;;;20.85;50.78
25855;BME280;13680;49.936;11.344;2023-05-23T13:00:15;96678.19;;;20.93;50.65
25855;BME280;13680;49.936;11.344;2023-05-23T13:02:40;96681.38;;;20.95;50.76